sensor_id;sensor_type;location;lat;lon;timestamp;pressure;altitude;pressure_sealevel;temperature;humidity
50774;BME280;36745;48.544;8.918;2023-08-06T00:02:30;96622.78;;;15.16;92.43
50774;BME280;36745;48.544;8.918;2023-08-06T00:05:49;96617.69;;;15.14;92.65
50774;BME280;36745;48.544;8.918;2023-08-06T00:09:08;96618.94;;;15.13;92.44
50774;BME280;36745;48.544;8.918;2023-08-06T00:12:27;96627.03;;;15.11;92.68
50774;BME280;36745;48.544;8.918;2023-08-06T00:15:46;96630.50;;;15.06;92.87
50774;BME280;36745;48.544;8.918;2023-08-06T00:19:05;96630.63;;;14.97;92.83
50774;BME280;36745;48.544;8.918;2023-08-06T00:22:25;96627.69;;;14.86;93.22
50774;BME280;36745;48.544;8.918;2023-08-06T00:25:44;96624.22;;;14.70;93.56
50774;BME280;36745;48.544;8.918;2023-08-06T00:29:02;96617.56;;;14.62;93.59
50774;BME280;36745;48.544;8.918;2023-08-06T00:32:22;96623.81;;;14.57;93.13
50774;BME280;36745;48.544;8.918;2023-08-06T00:35:41;96618.13;;;14.46;93.86
50774;BME280;36745;48.544;8.918;2023-08-06T00:39:00;96608.06;;;14.34;93.94
50774;BME280;36745;48.544;8.918;2023-08-06T00:42:19;96607.22;;;14.28;94.58
50774;BME280;36745;48.544;8.918;2023-08-06T00:45:39;96606.25;;;14.31;94.98
50774;BME280;36745;48.544;8.918;2023-08-06T00:48:58;96600.16;;;14.27;95.06
50774;BME280;36745;48.544;8.918;2023-08-06T00:52:17;96594.59;;;14.27;95.37
50774;BME280;36745;48.544;8.918;2023-08-06T00:55:36;96600.16;;;14.27;95.39
50774;BME280;36745;48.544;8.918;2023-08-06T00:58:55;96587.94;;;14.19;95.24
50774;BME280;36745;48.544;8.918;2023-08-06T01:02:15;96584.50;;;14.24;95.39
50774;BME280;36745;48.544;8.918;2023-08-06T01:05:34;96594.06;;;14.23;95.06
50774;BME280;36745;48.544;8.918;2023-08-06T01:09:00;96586.97;;;14.22;94.37
50774;BME280;36745;48.544;8.918;2023-08-06T01:12:25;96586.13;;;14.16;94.95
50774;BME280;36745;48.544;8.918;2023-08-06T01:15:54;96580.03;;;14.12;95.30
50774;BME280;36745;48.544;8.918;2023-08-06T01:19:17;96584.41;;;14.04;94.96
50774;BME280;36745;48.544;8.918;2023-08-06T01:22:36;96578.06;;;13.98;95.54
50774;BME280;36745;48.544;8.918;2023-08-06T01:32:43;96565.81;;;13.90;95.25
50774;BME280;36745;48.544;8.918;2023-08-06T01:36:03;96564.28;;;13.88;94.80
50774;BME280;36745;48.544;8.918;2023-08-06T01:39:23;96576.38;;;13.71;94.97
50774;BME280;36745;48.544;8.918;2023-08-06T01:42:42;96566.72;;;13.66;94.82
50774;BME280;36745;48.544;8.918;2023-08-06T01:46:01;96574.38;;;13.42;95.59
50774;BME280;36745;48.544;8.918;2023-08-06T01:49:20;96583.03;;;13.35;96.13
50774;BME280;36745;48.544;8.918;2023-08-06T01:52:39;96580.56;;;13.22;96.64
50774;BME280;36745;48.544;8.918;2023-08-06T01:55:58;96576.75;;;13.20;96.47
50774;BME280;36745;48.544;8.918;2023-08-06T01:59:16;96573.66;;;13.18;96.92
50774;BME280;36745;48.544;8.918;2023-08-06T02:02:35;96568.34;;;13.14;96.91
50774;BME280;36745;48.544;8.918;2023-08-06T02:05:54;96553.59;;;13.08;96.76
50774;BME280;36745;48.544;8.918;2023-08-06T02:09:13;96551.91;;;13.11;96.87
50774;BME280;36745;48.544;8.918;2023-08-06T02:12:32;96550.75;;;13.17;96.85
50774;BME280;36745;48.544;8.918;2023-08-06T02:15:51;96555.81;;;13.19;96.89
50774;BME280;36745;48.544;8.918;2023-08-06T02:19:10;96548.09;;;13.23;96.82
50774;BME280;36745;48.544;8.918;2023-08-06T02:22:29;96546.59;;;13.22;97.15
50774;BME280;36745;48.544;8.918;2023-08-06T02:25:48;96534.00;;;13.21;97.03
50774;BME280;36745;48.544;8.918;2023-08-06T02:29:07;96526.56;;;13.27;97.62
50774;BME280;36745;48.544;8.918;2023-08-06T02:32:26;96515.28;;;13.30;97.77
50774;BME280;36745;48.544;8.918;2023-08-06T02:35:45;96521.75;;;13.42;97.59
50774;BME280;36745;48.544;8.918;2023-08-06T02:39:04;96522.88;;;13.50;97.60
50774;BME280;36745;48.544;8.918;2023-08-06T02:42:23;96503.41;;;13.44;97.78
50774;BME280;36745;48.544;8.918;2023-08-06T02:45:41;96505.06;;;13.36;97.42
50774;BME280;36745;48.544;8.918;2023-08-06T02:49:00;96505.66;;;13.26;97.14
50774;BME280;36745;48.544;8.918;2023-08-06T02:52:19;96505.34;;;13.24;97.61
50774;BME280;36745;48.544;8.918;2023-08-06T02:55:48;96495.81;;;13.25;97.70
50774;BME280;36745;48.544;8.918;2023-08-06T02:59:07;96490.84;;;13.29;97.98
50774;BME280;36745;48.544;8.918;2023-08-06T03:02:26;96488.91;;;13.35;97.81
50774;BME280;36745;48.544;8.918;2023-08-06T03:05:54;96492.00;;;13.37;97.91
50774;BME280;36745;48.544;8.918;2023-08-06T03:09:13;96489.34;;;13.28;97.97
50774;BME280;36745;48.544;8.918;2023-08-06T03:12:32;96483.03;;;13.27;98.58
50774;BME280;36745;48.544;8.918;2023-08-06T03:15:59;96482.25;;;13.27;99.02
50774;BME280;36745;48.544;8.918;2023-08-06T03:19:18;96474.22;;;13.29;99.36
50774;BME280;36745;48.544;8.918;2023-08-06T03:22:37;96485.22;;;13.38;98.85
50774;BME280;36745;48.544;8.918;2023-08-06T03:25:56;96487.00;;;13.41;99.26
50774;BME280;36745;48.544;8.918;2023-08-06T03:29:15;96485.09;;;13.47;98.84
50774;BME280;36745;48.544;8.918;2023-08-06T03:32:34;96485.66;;;13.51;99.13
50774;BME280;36745;48.544;8.918;2023-08-06T03:35:53;96493.50;;;13.53;99.36
50774;BME280;36745;48.544;8.918;2023-08-06T03:39:12;96486.44;;;13.52;98.96
50774;BME280;36745;48.544;8.918;2023-08-06T03:42:32;96484.34;;;13.47;99.68
50774;BME280;36745;48.544;8.918;2023-08-06T03:45:51;96472.66;;;13.57;99.96
50774;BME280;36745;48.544;8.918;2023-08-06T03:49:10;96474.25;;;13.78;99.59
50774;BME280;36745;48.544;8.918;2023-08-06T03:52:29;96476.97;;;13.93;99.63
50774;BME280;36745;48.544;8.918;2023-08-06T03:55:48;96477.09;;;14.04;99.54
50774;BME280;36745;48.544;8.918;2023-08-06T03:59:06;96475.72;;;14.14;99.04
50774;BME280;36745;48.544;8.918;2023-08-06T04:02:26;96485.31;;;14.13;99.50
50774;BME280;36745;48.544;8.918;2023-08-06T04:05:44;96481.09;;;14.18;98.75
50774;BME280;36745;48.544;8.918;2023-08-06T04:09:03;96474.00;;;14.17;98.33
50774;BME280;36745;48.544;8.918;2023-08-06T04:12:22;96474.00;;;14.17;99.13
50774;BME280;36745;48.544;8.918;2023-08-06T04:15:42;96479.56;;;14.17;99.46
50774;BME280;36745;48.544;8.918;2023-08-06T04:19:01;96498.25;;;14.22;99.33
50774;BME280;36745;48.544;8.918;2023-08-06T04:22:20;96500.19;;;14.16;99.63
50774;BME280;36745;48.544;8.918;2023-08-06T04:25:39;96497.50;;;14.21;99.67
50774;BME280;36745;48.544;8.918;2023-08-06T04:28:59;96499.41;;;14.30;99.45
50774;BME280;36745;48.544;8.918;2023-08-06T04:32:18;96494.88;;;14.33;98.94
50774;BME280;36745;48.544;8.918;2023-08-06T04:35:37;96496.34;;;14.28;98.26
50774;BME280;36745;48.544;8.918;2023-08-06T04:38:56;96491.47;;;14.23;97.81
50774;BME280;36745;48.544;8.918;2023-08-06T04:42:15;96500.66;;;14.14;98.22
50774;BME280;36745;48.544;8.918;2023-08-06T04:45:34;96495.63;;;14.13;97.50
50774;BME280;36745;48.544;8.918;2023-08-06T04:48:53;96505.19;;;14.12;97.49
50774;BME280;36745;48.544;8.918;2023-08-06T04:52:12;96513.97;;;14.10;97.67
50774;BME280;36745;48.544;8.918;2023-08-06T04:55:31;96502.91;;;14.10;97.97
50774;BME280;36745;48.544;8.918;2023-08-06T04:58:50;96504.03;;;14.18;98.43
50774;BME280;36745;48.544;8.918;2023-08-06T05:02:09;96509.22;;;14.31;97.66
50774;BME280;36745;48.544;8.918;2023-08-06T05:05:29;96501.88;;;14.28;96.74
50774;BME280;36745;48.544;8.918;2023-08-06T05:08:48;96500.34;;;14.27;96.98
50774;BME280;36745;48.544;8.918;2023-08-06T05:12:07;96510.75;;;14.32;97.18
50774;BME280;36745;48.544;8.918;2023-08-06T05:15:26;96494.88;;;14.33;97.21
50774;BME280;36745;48.544;8.918;2023-08-06T05:18:46;96502.06;;;14.39;96.85
50774;BME280;36745;48.544;8.918;2023-08-06T05:22:05;96503.34;;;14.44;97.54
50774;BME280;36745;48.544;8.918;2023-08-06T05:25:24;96503.72;;;14.51;96.76
50774;BME280;36745;48.544;8.918;2023-08-06T05:28:43;96490.81;;;14.48;96.40
50774;BME280;36745;48.544;8.918;2023-08-06T05:32:02;96509.25;;;14.51;96.80
50774;BME280;36745;48.544;8.918;2023-08-06T05:35:21;96508.00;;;14.52;96.15
50774;BME280;36745;48.544;8.918;2023-08-06T05:38:40;96517.28;;;14.49;96.58
50774;BME280;36745;48.544;8.918;2023-08-06T05:41:59;96523.31;;;14.48;95.79
50774;BME280;36745;48.544;8.918;2023-08-06T05:45:18;96525.31;;;14.47;95.96
50774;BME280;36745;48.544;8.918;2023-08-06T05:48:37;96540.03;;;14.53;96.10
50774;BME280;36745;48.544;8.918;2023-08-06T05:51:56;96527.00;;;14.59;96.22
50774;BME280;36745;48.544;8.918;2023-08-06T05:55:15;96532.00;;;14.55;95.41
50774;BME280;36745;48.544;8.918;2023-08-06T05:58:37;96519.78;;;14.47;95.22
50774;BME280;36745;48.544;8.918;2023-08-06T06:01:59;96523.81;;;14.46;95.68
50774;BME280;36745;48.544;8.918;2023-08-06T06:05:18;96519.78;;;14.47;95.75
50774;BME280;36745;48.544;8.918;2023-08-06T06:08:37;96526.22;;;14.59;96.70
50774;BME280;36745;48.544;8.918;2023-08-06T06:11:55;96526.31;;;14.64;96.82
50774;BME280;36745;48.544;8.918;2023-08-06T06:15:14;96534.63;;;14.64;97.22
50774;BME280;36745;48.544;8.918;2023-08-06T06:18:33;96537.84;;;14.57;96.80
50774;BME280;36745;48.544;8.918;2023-08-06T06:21:53;96544.03;;;14.52;97.50
50774;BME280;36745;48.544;8.918;2023-08-06T06:25:12;96544.47;;;14.45;97.66
50774;BME280;36745;48.544;8.918;2023-08-06T06:28:31;96544.31;;;14.34;97.70
50774;BME280;36745;48.544;8.918;2023-08-06T06:31:49;96553.69;;;14.37;98.24
50774;BME280;36745;48.544;8.918;2023-08-06T06:35:08;96549.28;;;14.30;97.97
50774;BME280;36745;48.544;8.918;2023-08-06T06:38:28;96565.34;;;14.26;99.10
50774;BME280;36745;48.544;8.918;2023-08-06T06:41:47;96562.88;;;14.28;99.25
50774;BME280;36745;48.544;8.918;2023-08-06T06:45:06;96558.84;;;14.29;98.96
50774;BME280;36745;48.544;8.918;2023-08-06T06:48:27;96563.22;;;14.36;99.15
50774;BME280;36745;48.544;8.918;2023-08-06T06:51:47;96564.94;;;14.33;100.00
50774;BME280;36745;48.544;8.918;2023-08-06T06:55:08;96560.34;;;14.45;99.52
50774;BME280;36745;48.544;8.918;2023-08-06T06:58:28;96558.59;;;14.47;99.85
50774;BME280;36745;48.544;8.918;2023-08-06T07:01:47;96564.91;;;14.48;100.00
50774;BME280;36745;48.544;8.918;2023-08-06T07:05:06;96562.44;;;14.50;100.00
50774;BME280;36745;48.544;8.918;2023-08-06T07:08:26;96560.56;;;14.41;100.00
50774;BME280;36745;48.544;8.918;2023-08-06T07:11:45;96559.81;;;14.26;99.40
50774;BME280;36745;48.544;8.918;2023-08-06T07:15:06;96571.31;;;14.19;100.00
50774;BME280;36745;48.544;8.918;2023-08-06T07:18:25;96564.88;;;14.27;100.00
50774;BME280;36745;48.544;8.918;2023-08-06T07:21:44;96563.34;;;14.41;100.00
50774;BME280;36745;48.544;8.918;2023-08-06T07:25:03;96560.56;;;14.41;100.00
50774;BME280;36745;48.544;8.918;2023-08-06T07:28:22;96563.59;;;14.43;100.00
50774;BME280;36745;48.544;8.918;2023-08-06T07:31:42;96565.81;;;14.39;100.00
50774;BME280;36745;48.544;8.918;2023-08-06T07:35:00;96568.59;;;14.39;100.00
50774;BME280;36745;48.544;8.918;2023-08-06T07:38:21;96573.75;;;14.46;100.00
50774;BME280;36745;48.544;8.918;2023-08-06T07:41:40;96574.06;;;14.54;100.00
50774;BME280;36745;48.544;8.918;2023-08-06T07:45:00;96576.94;;;14.59;100.00
50774;BME280;36745;48.544;8.918;2023-08-06T07:48:19;96575.47;;;14.64;100.00
50774;BME280;36745;48.544;8.918;2023-08-06T07:51:37;96583.38;;;14.71;100.00
50774;BME280;36745;48.544;8.918;2023-08-06T07:54:57;96585.69;;;14.73;100.00
50774;BME280;36745;48.544;8.918;2023-08-06T07:58:16;96583.09;;;14.69;100.00
50774;BME280;36745;48.544;8.918;2023-08-06T08:01:36;96575.00;;;14.65;100.00
50774;BME280;36745;48.544;8.918;2023-08-06T08:04:54;96590.66;;;14.68;100.00
50774;BME280;36745;48.544;8.918;2023-08-06T08:08:14;96592.88;;;14.64;100.00
50774;BME280;36745;48.544;8.918;2023-08-06T08:11:33;96598.16;;;14.62;100.00
50774;BME280;36745;48.544;8.918;2023-08-06T08:14:52;96590.53;;;14.57;100.00
50774;BME280;36745;48.544;8.918;2023-08-06T08:18:11;96589.75;;;14.57;100.00
50774;BME280;36745;48.544;8.918;2023-08-06T08:21:30;96581.53;;;14.62;100.00
50774;BME280;36745;48.544;8.918;2023-08-06T08:24:49;96589.47;;;14.75;100.00
50774;BME280;36745;48.544;8.918;2023-08-06T08:28:08;96582.22;;;14.78;100.00
50774;BME280;36745;48.544;8.918;2023-08-06T08:31:27;96582.81;;;14.87;100.00
50774;BME280;36745;48.544;8.918;2023-08-06T08:34:47;96592.31;;;15.01;100.00
50774;BME280;36745;48.544;8.918;2023-08-06T08:38:06;96580.78;;;15.08;100.00
50774;BME280;36745;48.544;8.918;2023-08-06T08:41:28;96572.56;;;14.93;100.00
50774;BME280;36745;48.544;8.918;2023-08-06T08:44:48;96587.81;;;15.03;100.00
50774;BME280;36745;48.544;8.918;2023-08-06T08:48:08;96593.91;;;15.07;100.00
50774;BME280;36745;48.544;8.918;2023-08-06T08:51:27;96598.56;;;14.96;100.00
50774;BME280;36745;48.544;8.918;2023-08-06T08:54:47;96608.63;;;14.93;100.00
50774;BME280;36745;48.544;8.918;2023-08-06T08:58:10;96599.94;;;14.86;100.00
50774;BME280;36745;48.544;8.918;2023-08-06T09:01:30;96604.53;;;14.89;100.00
50774;BME280;36745;48.544;8.918;2023-08-06T09:04:49;96598.38;;;14.99;100.00
50774;BME280;36745;48.544;8.918;2023-08-06T09:08:11;96605.91;;;15.19;100.00
50774;BME280;36745;48.544;8.918;2023-08-06T09:11:34;96606.03;;;15.30;100.00
50774;BME280;36745;48.544;8.918;2023-08-06T09:14:58;96601.88;;;15.46;100.00
50774;BME280;36745;48.544;8.918;2023-08-06T09:18:25;96604.19;;;15.47;100.00
50774;BME280;36745;48.544;8.918;2023-08-06T09:21:46;96606.63;;;15.66;100.00
50774;BME280;36745;48.544;8.918;2023-08-06T09:25:08;96613.91;;;15.58;100.00
50774;BME280;36745;48.544;8.918;2023-08-06T09:28:38;96619.41;;;15.52;100.00
50774;BME280;36745;48.544;8.918;2023-08-06T09:31:58;96633.16;;;15.41;100.00
50774;BME280;36745;48.544;8.918;2023-08-06T09:35:18;96626.75;;;15.35;100.00
50774;BME280;36745;48.544;8.918;2023-08-06T09:38:38;96634.19;;;15.23;100.00
50774;BME280;36745;48.544;8.918;2023-08-06T09:42:00;96629.34;;;15.18;100.00
50774;BME280;36745;48.544;8.918;2023-08-06T09:45:20;96633.44;;;15.23;100.00
50774;BME280;36745;48.544;8.918;2023-08-06T09:48:46;96628.09;;;15.19;100.00
50774;BME280;36745;48.544;8.918;2023-08-06T09:52:06;96628.59;;;14.97;100.00
50774;BME280;36745;48.544;8.918;2023-08-06T09:55:27;96633.38;;;14.97;100.00
50774;BME280;36745;48.544;8.918;2023-08-06T09:58:47;96628.38;;;15.01;100.00
50774;BME280;36745;48.544;8.918;2023-08-06T10:02:12;96620.22;;;14.92;100.00
50774;BME280;36745;48.544;8.918;2023-08-06T10:05:32;96625.75;;;14.92;100.00
50774;BME280;36745;48.544;8.918;2023-08-06T10:08:52;96631.31;;;14.92;100.00
50774;BME280;36745;48.544;8.918;2023-08-06T10:12:11;96625.50;;;14.90;100.00
50774;BME280;36745;48.544;8.918;2023-08-06T10:15:31;96630.34;;;14.95;100.00
50774;BME280;36745;48.544;8.918;2023-08-06T10:18:51;96636.44;;;14.99;100.00
50774;BME280;36745;48.544;8.918;2023-08-06T10:22:12;96633.53;;;15.08;100.00
50774;BME280;36745;48.544;8.918;2023-08-06T10:25:32;96637.97;;;15.20;100.00
50774;BME280;36745;48.544;8.918;2023-08-06T10:28:52;96639.97;;;15.20;100.00
50774;BME280;36745;48.544;8.918;2023-08-06T10:32:11;96652.41;;;15.24;100.00
50774;BME280;36745;48.544;8.918;2023-08-06T10:35:35;96650.53;;;15.16;100.00
50774;BME280;36745;48.544;8.918;2023-08-06T10:38:57;96657.63;;;15.17;100.00
50774;BME280;36745;48.544;8.918;2023-08-06T10:42:29;96661.97;;;15.23;100.00
50774;BME280;36745;48.544;8.918;2023-08-06T10:45:49;96665.16;;;15.36;100.00
50774;BME280;36745;48.544;8.918;2023-08-06T10:49:11;96661.69;;;15.41;100.00
50774;BME280;36745;48.544;8.918;2023-08-06T10:52:30;96679.75;;;15.31;100.00
50774;BME280;36745;48.544;8.918;2023-08-06T10:55:50;96674.13;;;15.26;100.00
50774;BME280;36745;48.544;8.918;2023-08-06T10:59:08;96681.16;;;15.21;100.00
50774;BME280;36745;48.544;8.918;2023-08-06T11:02:33;96683.72;;;15.04;100.00
50774;BME280;36745;48.544;8.918;2023-08-06T11:05:52;96688.34;;;14.93;100.00
50774;BME280;36745;48.544;8.918;2023-08-06T11:09:11;96696.38;;;14.91;100.00
50774;BME280;36745;48.544;8.918;2023-08-06T11:12:34;96698.75;;;14.78;100.00
50774;BME280;36745;48.544;8.918;2023-08-06T11:15:53;96696.91;;;14.75;100.00
50774;BME280;36745;48.544;8.918;2023-08-06T11:19:12;96714.47;;;14.66;100.00
50774;BME280;36745;48.544;8.918;2023-08-06T11:22:35;96714.47;;;14.66;100.00
50774;BME280;36745;48.544;8.918;2023-08-06T11:25:58;96726.31;;;14.66;100.00
50774;BME280;36745;48.544;8.918;2023-08-06T11:29:17;96716.75;;;14.67;100.00
50774;BME280;36745;48.544;8.918;2023-08-06T11:32:44;96717.31;;;14.72;100.00
50774;BME280;36745;48.544;8.918;2023-08-06T11:36:04;96713.47;;;14.84;100.00
50774;BME280;36745;48.544;8.918;2023-08-06T11:39:24;96722.34;;;14.88;100.00
50774;BME280;36745;48.544;8.918;2023-08-06T11:42:43;96734.06;;;14.97;100.00
50774;BME280;36745;48.544;8.918;2023-08-06T11:46:02;96723.13;;;15.08;100.00
50774;BME280;36745;48.544;8.918;2023-08-06T11:52:57;96737.31;;;14.96;100.00
50774;BME280;36745;48.544;8.918;2023-08-06T11:56:17;96735.22;;;15.05;100.00
50774;BME280;36745;48.544;8.918;2023-08-06T11:59:37;96746.50;;;15.02;100.00
50774;BME280;36745;48.544;8.918;2023-08-06T12:02:57;96755.56;;;14.82;100.00
50774;BME280;36745;48.544;8.918;2023-08-06T12:06:16;96758.28;;;14.62;100.00
50774;BME280;36745;48.544;8.918;2023-08-06T12:09:35;96769.09;;;14.60;100.00
50774;BME280;36745;48.544;8.918;2023-08-06T12:12:55;96779.88;;;14.58;100.00
50774;BME280;36745;48.544;8.918;2023-08-06T12:16:13;96771.84;;;14.60;100.00
50774;BME280;36745;48.544;8.918;2023-08-06T12:19:32;96767.28;;;14.57;100.00
50774;BME280;36745;48.544;8.918;2023-08-06T12:22:51;96758.94;;;14.72;100.00
50774;BME280;36745;48.544;8.918;2023-08-06T12:26:10;96760.63;;;14.84;100.00
50774;BME280;36745;48.544;8.918;2023-08-06T12:29:29;96755.34;;;14.86;100.00
50774;BME280;36745;48.544;8.918;2023-08-06T12:32:50;96771.22;;;15.00;100.00
50774;BME280;36745;48.544;8.918;2023-08-06T12:36:11;96770.03;;;15.06;100.00
50774;BME280;36745;48.544;8.918;2023-08-06T12:39:30;96767.25;;;15.06;100.00
50774;BME280;36745;48.544;8.918;2023-08-06T12:42:50;96776.72;;;15.15;100.00
50774;BME280;36745;48.544;8.918;2023-08-06T12:46:09;96774.63;;;15.09;100.00
50774;BME280;36745;48.544;8.918;2023-08-06T12:49:28;96794.19;;;15.00;100.00
50774;BME280;36745;48.544;8.918;2023-08-06T12:52:48;96792.16;;;15.01;100.00
50774;BME280;36745;48.544;8.918;2023-08-06T12:56:07;96800.47;;;15.01;100.00
50774;BME280;36745;48.544;8.918;2023-08-06T12:59:26;96791.63;;;15.17;100.00
50774;BME280;36745;48.544;8.918;2023-08-06T13:02:45;96800.53;;;15.21;100.00
50774;BME280;36745;48.544;8.918;2023-08-06T13:06:04;96801.09;;;15.45;100.00
50774;BME280;36745;48.544;8.918;2023-08-06T13:09:23;96797.22;;;15.37;100.00
50774;BME280;36745;48.544;8.918;2023-08-06T13:13:14;96795.41;;;15.34;100.00
50774;BME280;36745;48.544;8.918;2023-08-06T13:16:33;96813.06;;;15.31;98.98
50774;BME280;36745;48.544;8.918;2023-08-06T13:19:53;96810.44;;;15.42;99.20
50774;BME280;36745;48.544;8.918;2023-08-06T13:23:12;96810.06;;;15.35;97.72
50774;BME280;36745;48.544;8.918;2023-08-06T13:26:34;96802.50;;;15.35;97.94
50774;BME280;36745;48.544;8.918;2023-08-06T13:29:53;96805.13;;;15.44;98.04
50774;BME280;36745;48.544;8.918;2023-08-06T13:33:12;96808.75;;;15.50;97.89
50774;BME280;36745;48.544;8.918;2023-08-06T13:36:31;96806.28;;;15.52;97.59
50774;BME280;36745;48.544;8.918;2023-08-06T13:39:50;96804.44;;;15.49;95.41
50774;BME280;36745;48.544;8.918;2023-08-06T13:43:09;96802.66;;;15.46;95.85
50774;BME280;36745;48.544;8.918;2023-08-06T13:46:28;96796.72;;;15.53;94.99
50774;BME280;36745;48.544;8.918;2023-08-06T13:49:47;96795.72;;;15.57;95.60
50774;BME280;36745;48.544;8.918;2023-08-06T13:53:06;96804.34;;;15.59;93.53
50774;BME280;36745;48.544;8.918;2023-08-06T13:56:25;96800.72;;;15.73;94.13
50774;BME280;36745;48.544;8.918;2023-08-06T13:59:44;96805.13;;;16.05;93.51
50774;BME280;36745;48.544;8.918;2023-08-06T14:03:03;96813.25;;;16.09;90.98
50774;BME280;36745;48.544;8.918;2023-08-06T14:06:21;96819.03;;;16.05;91.67
50774;BME280;36745;48.544;8.918;2023-08-06T14:09:40;96824.34;;;16.03;90.94
50774;BME280;36745;48.544;8.918;2023-08-06T14:13:01;96830.56;;;15.98;89.97
50774;BME280;36745;48.544;8.918;2023-08-06T14:16:20;96849.00;;;15.95;90.91
50774;BME280;36745;48.544;8.918;2023-08-06T14:19:39;96856.38;;;15.78;89.93
50774;BME280;36745;48.544;8.918;2023-08-06T14:22:58;96872.28;;;15.78;90.96
50774;BME280;36745;48.544;8.918;2023-08-06T14:26:17;96874.94;;;15.87;92.26
50774;BME280;36745;48.544;8.918;2023-08-06T14:29:36;96870.47;;;15.95;92.77
50774;BME280;36745;48.544;8.918;2023-08-06T14:32:55;96868.25;;;15.99;92.76
50774;BME280;36745;48.544;8.918;2023-08-06T14:36:14;96876.44;;;15.88;93.00
50774;BME280;36745;48.544;8.918;2023-08-06T14:39:33;96893.59;;;15.66;92.92
50774;BME280;36745;48.544;8.918;2023-08-06T14:42:52;96904.38;;;15.59;92.04
50774;BME280;36745;48.544;8.918;2023-08-06T14:46:10;96910.47;;;15.63;93.19
50774;BME280;36745;48.544;8.918;2023-08-06T14:49:30;96909.09;;;15.73;91.36
50774;BME280;36745;48.544;8.918;2023-08-06T14:52:49;96922.19;;;15.87;92.46
50774;BME280;36745;48.544;8.918;2023-08-06T14:56:08;96919.28;;;15.76;89.32
50774;BME280;36745;48.544;8.918;2023-08-06T14:59:27;96919.22;;;15.56;89.52
50774;BME280;36745;48.544;8.918;2023-08-06T15:02:47;96922.19;;;15.52;88.23
50774;BME280;36745;48.544;8.918;2023-08-06T15:06:06;96933.19;;;15.46;89.06
50774;BME280;36745;48.544;8.918;2023-08-06T15:09:26;96932.84;;;15.53;87.96
50774;BME280;36745;48.544;8.918;2023-08-06T15:12:45;96932.03;;;15.68;87.66
50774;BME280;36745;48.544;8.918;2023-08-06T15:16:04;96932.19;;;15.79;87.86
50774;BME280;36745;48.544;8.918;2023-08-06T15:19:24;96929.16;;;15.97;87.78
50774;BME280;36745;48.544;8.918;2023-08-06T15:22:43;96936.66;;;16.11;86.39
50774;BME280;36745;48.544;8.918;2023-08-06T15:26:02;96939.50;;;16.17;86.37
50774;BME280;36745;48.544;8.918;2023-08-06T15:29:21;96946.69;;;16.23;86.34
50774;BME280;36745;48.544;8.918;2023-08-06T15:32:40;96958.81;;;16.26;84.66
50774;BME280;36745;48.544;8.918;2023-08-06T15:36:03;96946.94;;;16.25;84.85
50774;BME280;36745;48.544;8.918;2023-08-06T15:39:21;96954.66;;;16.16;84.19
50774;BME280;36745;48.544;8.918;2023-08-06T15:42:40;96947.91;;;16.22;84.67
50774;BME280;36745;48.544;8.918;2023-08-06T15:46:00;96951.53;;;16.08;82.76
50774;BME280;36745;48.544;8.918;2023-08-06T15:49:19;96966.47;;;15.90;82.16
50774;BME280;36745;48.544;8.918;2023-08-06T15:52:38;96953.97;;;15.66;82.30
50774;BME280;36745;48.544;8.918;2023-08-06T15:55:57;96966.66;;;15.37;82.45
50774;BME280;36745;48.544;8.918;2023-08-06T15:59:22;96984.09;;;15.38;83.31
50774;BME280;36745;48.544;8.918;2023-08-06T16:02:42;96983.31;;;15.37;84.11
50774;BME280;36745;48.544;8.918;2023-08-06T16:06:01;96990.41;;;15.38;84.38
50774;BME280;36745;48.544;8.918;2023-08-06T16:09:21;96995.75;;;15.42;84.67
50774;BME280;36745;48.544;8.918;2023-08-06T16:12:41;96994.22;;;15.41;85.44
50774;BME280;36745;48.544;8.918;2023-08-06T16:16:00;97008.75;;;15.50;85.48
50774;BME280;36745;48.544;8.918;2023-08-06T16:19:19;97002.75;;;15.37;85.10
50774;BME280;36745;48.544;8.918;2023-08-06T16:22:38;96995.59;;;15.16;84.85
50774;BME280;36745;48.544;8.918;2023-08-06T16:25:57;96996.81;;;15.15;84.93
50774;BME280;36745;48.544;8.918;2023-08-06T16:29:16;96992.88;;;15.07;84.63
50774;BME280;36745;48.544;8.918;2023-08-06T16:32:36;97004.38;;;15.00;84.78
50774;BME280;36745;48.544;8.918;2023-08-06T16:35:55;97000.34;;;15.01;84.55
50774;BME280;36745;48.544;8.918;2023-08-06T16:39:14;97019.19;;;14.97;83.90
50774;BME280;36745;48.544;8.918;2023-08-06T16:42:39;97011.16;;;14.84;82.57
50774;BME280;36745;48.544;8.918;2023-08-06T16:45:58;97018.09;;;14.65;82.28
50774;BME280;36745;48.544;8.918;2023-08-06T16:49:17;97023.88;;;14.52;81.99
50774;BME280;36745;48.544;8.918;2023-08-06T16:52:36;97034.38;;;14.48;82.48
50774;BME280;36745;48.544;8.918;2023-08-06T16:55:56;97042.13;;;14.44;83.49
50774;BME280;36745;48.544;8.918;2023-08-06T16:59:17;97048.84;;;14.52;83.50
50774;BME280;36745;48.544;8.918;2023-08-06T17:02:36;97046.38;;;14.54;83.28
50774;BME280;36745;48.544;8.918;2023-08-06T17:05:55;97045.78;;;14.50;83.80
50774;BME280;36745;48.544;8.918;2023-08-06T17:09:14;97055.47;;;14.55;84.14
50774;BME280;36745;48.544;8.918;2023-08-06T17:12:33;97066.88;;;14.57;84.15
50774;BME280;36745;48.544;8.918;2023-08-06T17:15:52;97073.53;;;14.50;84.07
50774;BME280;36745;48.544;8.918;2023-08-06T17:19:12;97088.63;;;14.49;83.68
50774;BME280;36745;48.544;8.918;2023-08-06T17:22:32;97091.97;;;14.53;84.43
50774;BME280;36745;48.544;8.918;2023-08-06T17:25:53;97088.63;;;14.49;85.13
50774;BME280;36745;48.544;8.918;2023-08-06T17:29:13;97094.41;;;14.37;86.59
50774;BME280;36745;48.544;8.918;2023-08-06T17:32:32;97086.50;;;14.44;86.90
50774;BME280;36745;48.544;8.918;2023-08-06T17:35:51;97093.00;;;14.41;86.96
50774;BME280;36745;48.544;8.918;2023-08-06T17:39:10;97102.19;;;14.47;87.46
50774;BME280;36745;48.544;8.918;2023-08-06T17:42:29;97103.63;;;14.34;87.80
50774;BME280;36745;48.544;8.918;2023-08-06T17:45:48;97114.91;;;14.30;88.00